Terminal Aerodrome Forecast
Issued by NWS Cleveland, OH

Home | Current Version | Previous Version | Text Only | Print | Product List | Glossary Off
Versions: 1 2 3 4 5 6 7 8 9 10 11 12 13 14 15 16 17 18 19 20 21

000
FTUS41 KCLE 191100
TAFERI
TAF
KERI 191136Z 1912/2012 10004KT P6SM SCT030
     FM191600 05006KT P6SM SCT035
     FM200100 16007KT P6SM SKC
     FM200400 17012G22KT P6SM SCT250=

USA.gov is the U.S. government's official web portal to all federal, state and local government web resources and services.